首页
METAR-TAF:

METAR-TAF

机场 :

布達佩斯李斯特·費倫茨國際機場

布达佩斯, 匈牙利

纬度: 47-26N, 经度: 019-16E, 海拔: 151米

当前天气观测

该预报发布于31分钟前的07:00 UTC
风速4节,风向北转东北,在东转东北之间变化
温度 22°C
湿度 73%
气压 1014 hPa
能见度10公里或以上
小雨

METAR: LHBP 140700Z 02004KT 350V070 9999 -RA NSC 22/17 Q1014 BECMG NSW

时间: 09:31 (07:31 UTC)

预报

该预报发布于2小时和16分钟前的05:15 UTC
预报有效从14日的 06点(UTC)到 15日的 06点(UTC)
风速3节,风向多变
能见度10公里或以上
1500米以下无云,无积雨云
短暂存在
从 14日的 06点(UTC)到 14日的 14点(UTC)
散云层高于4000英尺, 塔状积云.
多云层高于7000英尺
阵雨
成为
从 14日的 07点(UTC)到 14日的 09点(UTC)
风速6节,风向南转南东
短暂存在
从 14日的 14点(UTC)到 15日的 03点(UTC)
散云层高于4500英尺
成为
从 14日的 14点(UTC)到 14日的 16点(UTC)
风速3节,风向多变

TAF: LHBP 140515Z 1406/1506 VRB03KT CAVOK TEMPO 1406/1414 SHRA SCT040TCU BKN070 BECMG 1407/1409 16006KT TEMPO 1414/1503 SCT045 BECMG 1414/1416 VRB03KT

超过4000个机场的气象观测和天气预报(METAR&TAF报告)。

可查询的气象台以黄色和红色小点在地图上表示。

将鼠标移到小点上方,可查看气象台名称。

然后点击查看天气观测和预报。

如需切换地图:点击带黑十字的绿色按钮放大地图;点击带横线的绿色按钮缩小地图;或者点击绿色箭头查看邻近地区的地图。


METAR-TAF: